Time;durP1;ratioP1;P1;durP2;ratioP2;P2;SDS_P1;SDS_P2;PMS_P1;PMS_P2;Temp;Humidity;BMP_temperature;BMP_pressure;BME280_temperature;BME280_humidity;BME280_pressure;Samples;Min_cycle;Max_cycle;Signal;HPM_P1;HPM_P2
2023/06/03 00:02:20;;;;;;;18.60;5.43;;;;;;;11.86;100.00;101710.72;5007660;28;20166;-73
2023/06/03 00:04:46;;;;;;;17.92;5.53;;;;;;;11.80;100.00;101709.53;5006228;28;20061;-73
2023/06/03 00:07:13;;;;;;;21.15;6.03;;;;;;;11.75;100.00;101704.41;5002667;28;20054;-74
2023/06/03 00:09:40;;;;;;;14.90;5.07;;;;;;;11.70;100.00;101707.56;5006716;28;20053;-73
2023/06/03 00:12:07;;;;;;;19.77;6.53;;;;;;;11.64;100.00;101703.59;5006309;28;20570;-75
2023/06/03 00:14:33;;;;;;;15.85;5.72;;;;;;;11.58;100.00;101703.22;5014533;28;20073;-73
2023/06/03 00:17:00;;;;;;;17.35;7.07;;;;;;;11.54;100.00;101704.41;5015651;28;20077;-76
2023/06/03 00:19:26;;;;;;;16.67;6.28;;;;;;;11.51;100.00;101711.59;5006430;28;20061;-73
2023/06/03 00:21:54;;;;;;;19.38;9.02;;;;;;;11.49;100.00;101708.44;5006131;28;20733;-74
2023/06/03 00:24:22;;;;;;;17.92;7.50;;;;;;;11.44;100.00;101708.00;5005890;28;20060;-73
2023/06/03 00:26:50;;;;;;;23.08;8.85;;;;;;;11.36;100.00;101706.44;5010249;28;20049;-73
2023/06/03 00:29:17;;;;;;;25.52;10.15;;;;;;;11.31;100.00;101713.19;5008897;28;20111;-74
2023/06/03 00:31:44;;;;;;;35.78;15.27;;;;;;;11.31;100.00;101710.41;5004868;28;20144;-73
2023/06/03 00:34:11;;;;;;;25.52;12.43;;;;;;;11.26;100.00;101710.00;5014748;28;20052;-73
2023/06/03 00:36:39;;;;;;;35.03;16.35;;;;;;;11.25;100.00;101719.56;5016725;28;20157;-74
2023/06/03 00:39:06;;;;;;;25.20;12.85;;;;;;;11.22;100.00;101712.81;5019683;28;20053;-74
2023/06/03 00:41:33;;;;;;;21.95;10.63;;;;;;;11.20;100.00;101712.38;5004059;28;20464;-74
2023/06/03 00:44:00;;;;;;;20.25;7.38;;;;;;;11.16;100.00;101717.16;5006455;28;20046;-76
2023/06/03 00:46:27;;;;;;;16.00;6.32;;;;;;;11.15;100.00;101723.94;5011253;28;20088;-77
2023/06/03 00:48:53;;;;;;;16.58;6.00;;;;;;;11.10;100.00;101723.50;5013211;28;20085;-73
2023/06/03 00:51:21;;;;;;;19.30;6.20;;;;;;;11.06;100.00;101712.38;5018704;28;20123;-74
2023/06/03 00:53:48;;;;;;;19.35;8.60;;;;;;;11.06;100.00;101719.91;5018774;28;20077;-73
2023/06/03 00:56:18;;;;;;;14.07;5.90;;;;;;;10.98;100.00;101705.22;5007805;28;20054;-72
2023/06/03 00:58:44;;;;;;;19.33;5.95;;;;;;;11.01;100.00;101706.41;5004046;28;20073;-74
2023/06/03 01:01:12;;;;;;;17.13;6.35;;;;;;;10.99;100.00;101709.59;5015074;28;20156;-72
2023/06/03 01:03:42;;;;;;;17.13;7.55;;;;;;;11.00;100.00;101708.41;5006720;28;20045;-72
2023/06/03 01:06:27;;;;;;;15.50;6.30;;;;;;;11.04;100.00;101717.53;5002781;28;20128;-74
2023/06/03 01:09:15;;;;;;;14.63;6.40;;;;;;;11.08;100.00;101717.56;5004661;28;20077;-74
2023/06/03 01:11:56;;;;;;;12.95;5.65;;;;;;;11.00;100.00;101694.47;5007317;28;20164;-75
2023/06/03 01:14:36;;;;;;;12.35;6.22;;;;;;;11.04;100.00;101702.84;4999313;28;20045;-75
2023/06/03 01:17:09;;;;;;;16.90;5.97;;;;;;;11.06;100.00;101706.81;4998251;28;20058;-73
2023/06/03 01:19:40;;;;;;;17.33;6.10;;;;;;;11.08;100.00;101706.41;5005804;28;20302;-73
2023/06/03 01:22:11;;;;;;;17.25;5.97;;;;;;;11.06;100.00;101709.59;4999847;28;20123;-74
2023/06/03 01:24:40;;;;;;;25.58;6.57;;;;;;;11.11;100.00;101711.19;5007158;28;20046;-75
2023/06/03 01:27:09;;;;;;;14.70;5.88;;;;;;;11.13;100.00;101712.38;5004300;28;20061;-75
2023/06/03 01:29:37;;;;;;;14.77;6.22;;;;;;;11.11;100.00;101714.75;5003980;28;20050;-74
2023/06/03 01:32:05;;;;;;;18.85;6.10;;;;;;;11.11;100.00;101714.75;4999514;28;20062;-73
2023/06/03 01:34:32;;;;;;;15.88;6.05;;;;;;;11.12;100.00;101712.78;5004151;28;20481;-73
2023/06/03 01:36:59;;;;;;;21.13;6.60;;;;;;;11.14;100.00;101702.06;5006447;28;20058;-74
2023/06/03 01:39:26;;;;;;;14.98;5.70;;;;;;;11.12;100.00;101699.66;5005348;28;20133;-75
2023/06/03 01:41:53;;;;;;;12.55;5.05;;;;;;;11.14;100.00;101708.41;5005202;28;20140;-74
2023/06/03 01:44:20;;;;;;;17.13;5.78;;;;;;;11.14;100.00;101702.81;5004174;28;20771;-74
2023/06/03 01:46:47;;;;;;;15.43;5.30;;;;;;;11.12;100.00;101699.66;5005646;28;20046;-74
2023/06/03 01:49:13;;;;;;;15.70;6.30;;;;;;;11.09;100.00;101691.31;5007868;28;20046;-75
2023/06/03 01:51:40;;;;;;;13.45;5.45;;;;;;;11.06;100.00;101697.66;5008103;28;20042;-74
2023/06/03 01:54:06;;;;;;;15.95;5.60;;;;;;;11.02;100.00;101694.88;5009157;28;20138;-76
2023/06/03 01:56:33;;;;;;;15.90;7.15;;;;;;;11.00;100.00;101697.25;5009192;28;20050;-74
2023/06/03 01:59:00;;;;;;;13.95;4.82;;;;;;;10.99;100.00;101706.81;5007595;28;20481;-75
2023/06/03 02:01:27;;;;;;;14.68;5.63;;;;;;;10.95;100.00;101706.03;5008612;28;20108;-73
2023/06/03 02:03:54;;;;;;;16.40;5.63;;;;;;;10.95;100.00;101702.44;5016565;28;20038;-74
2023/06/03 02:06:20;;;;;;;16.25;6.40;;;;;;;10.93;100.00;101702.81;5009459;28;20096;-74
2023/06/03 02:08:47;;;;;;;12.95;5.43;;;;;;;10.89;100.00;101704.81;5007437;28;20500;-75
2023/06/03 02:11:13;;;;;;;14.02;5.32;;;;;;;10.87;100.00;101698.84;5008733;28;20100;-74
2023/06/03 02:13:40;;;;;;;16.20;5.30;;;;;;;10.86;100.00;101705.59;5009244;28;20072;-72
2023/06/03 02:16:06;;;;;;;15.02;4.85;;;;;;;10.84;100.00;101710.75;5008241;28;20069;-73
2023/06/03 02:18:34;;;;;;;14.27;5.45;;;;;;;10.82;100.00;101713.16;5007400;28;20073;-72
2023/06/03 02:21:01;;;;;;;11.93;4.85;;;;;;;10.76;100.00;101714.72;5007513;28;20084;-73
2023/06/03 02:23:28;;;;;;;14.57;5.15;;;;;;;10.75;100.00;101706.78;5006372;28;20570;-71
2023/06/03 02:25:55;;;;;;;11.70;4.55;;;;;;;10.75;100.00;101701.22;5018656;28;20060;-73
2023/06/03 02:28:22;;;;;;;13.35;4.85;;;;;;;10.73;100.00;101703.63;5014594;28;20050;-74
2023/06/03 02:30:49;;;;;;;20.75;5.40;;;;;;;10.73;100.00;101695.28;5014996;28;20060;-73
2023/06/03 02:33:15;;;;;;;12.05;4.82;;;;;;;10.69;100.00;101702.78;5005935;28;20131;-75
2023/06/03 02:35:42;;;;;;;13.27;4.38;;;;;;;10.68;100.00;101702.00;5009557;28;20080;-73
2023/06/03 02:38:08;;;;;;;12.52;4.38;;;;;;;10.62;100.00;101698.03;5007108;28;20500;-74
2023/06/03 02:40:35;;;;;;;14.43;4.63;;;;;;;10.62;100.00;101708.34;5006452;28;20054;-74
2023/06/03 02:43:02;;;;;;;11.93;4.50;;;;;;;10.55;100.00;101700.78;5008363;28;20053;-76
2023/06/03 02:45:28;;;;;;;13.00;4.18;;;;;;;10.55;100.00;101709.13;5007623;28;20135;-74
2023/06/03 02:47:57;;;;;;;15.65;4.28;;;;;;;10.48;100.00;101706.34;5008480;28;20540;-74
2023/06/03 02:50:23;;;;;;;11.15;4.30;;;;;;;10.51;100.00;101702.78;5010825;28;20129;-74
2023/06/03 02:52:50;;;;;;;11.40;4.28;;;;;;;10.53;100.00;101710.72;5007455;28;20137;-74
2023/06/03 02:55:16;;;;;;;13.85;4.10;;;;;;;10.50;100.00;101715.06;5008541;28;20144;-74
2023/06/03 02:57:43;;;;;;;15.95;4.00;;;;;;;10.47;100.00;101703.94;5006501;28;20086;-72
2023/06/03 03:00:11;;;;;;;13.50;5.05;;;;;;;10.48;100.00;101713.88;5004082;28;20085;-73
2023/06/03 03:02:39;;;;;;;13.10;4.05;;;;;;;10.45;100.00;101709.91;5006904;28;20500;-72
2023/06/03 03:05:07;;;;;;;13.15;4.22;;;;;;;10.41;100.00;101708.28;5007273;28;20100;-75
2023/06/03 03:07:36;;;;;;;13.40;4.20;;;;;;;10.35;100.00;101710.66;5007603;28;20486;-72
2023/06/03 03:10:06;;;;;;;9.15;4.47;;;;;;;10.33;100.00;101718.59;5006843;28;20053;-74
2023/06/03 03:12:33;;;;;;;10.93;3.40;;;;;;;10.30;100.00;101713.03;5007125;28;20049;-74
2023/06/03 03:14:59;;;;;;;8.65;3.72;;;;;;;10.25;100.00;101725.31;5006617;28;20042;-73
2023/06/03 03:17:26;;;;;;;13.98;3.88;;;;;;;10.24;100.00;101720.94;5008599;28;20081;-75
2023/06/03 03:19:52;;;;;;;9.82;3.50;;;;;;;10.24;100.00;101728.47;5011680;28;20565;-73
2023/06/03 03:22:19;;;;;;;10.82;3.80;;;;;;;10.21;100.00;101721.72;5009795;28;20179;-75
2023/06/03 03:24:45;;;;;;;7.82;3.35;;;;;;;10.18;100.00;101736.41;5015522;28;20132;-75
2023/06/03 03:27:12;;;;;;;6.93;3.13;;;;;;;10.17;100.00;101729.25;5006607;28;20136;-73
2023/06/03 03:29:44;;;;;;;9.35;3.72;;;;;;;10.15;100.00;101731.63;5006468;28;20499;-73
2023/06/03 03:32:12;;;;;;;16.23;4.32;;;;;;;10.10;100.00;101731.19;5006081;28;20060;-73
2023/06/03 03:34:39;;;;;;;12.70;3.90;;;;;;;10.10;100.00;101731.19;5006882;28;20053;-72
2023/06/03 03:37:07;;;;;;;9.10;3.15;;;;;;;10.08;100.00;101728.81;5005751;28;20877;-74
2023/06/03 03:39:38;;;;;;;7.68;3.08;;;;;;;10.10;100.00;101729.22;5006813;28;20045;-74
2023/06/03 03:42:05;;;;;;;8.95;3.45;;;;;;;10.10;100.00;101733.97;4999976;28;20049;-76
2023/06/03 03:44:32;;;;;;;14.00;3.72;;;;;;;10.07;100.00;101733.56;5007465;28;20100;-74
2023/06/03 03:47:02;;;;;;;10.05;3.20;;;;;;;10.08;100.00;101728.81;5005307;28;22088;-72
2023/06/03 03:49:31;;;;;;;7.60;4.22;;;;;;;10.12;100.00;101731.63;5006154;28;20118;-73
2023/06/03 03:52:03;;;;;;;11.18;3.28;;;;;;;10.09;100.00;101732.41;5007013;28;20058;-75
2023/06/03 03:54:30;;;;;;;7.75;3.58;;;;;;;10.04;100.00;101739.91;5005328;28;20052;-76
2023/06/03 03:56:57;;;;;;;10.57;3.90;;;;;;;9.96;100.00;101729.09;5005664;28;20547;-74
2023/06/03 03:59:26;;;;;;;10.20;3.67;;;;;;;10.01;100.00;101742.66;5007249;28;20100;-73
2023/06/03 04:01:53;;;;;;;12.75;3.70;;;;;;;10.04;100.00;101739.91;5004631;28;20467;-73
2023/06/03 04:04:42;;;;;;;6.85;3.50;;;;;;;10.04;100.00;101741.91;5006796;28;20129;-74
2023/06/03 04:07:14;;;;;;;12.65;3.55;;;;;;;10.06;100.00;101747.84;5003937;28;20056;-73
2023/06/03 04:09:45;;;;;;;9.25;3.25;;;;;;;10.04;100.00;101744.66;5006125;28;20070;-72
2023/06/03 04:12:24;;;;;;;14.15;3.45;;;;;;;10.05;100.00;101749.03;4997835;28;20050;-73
2023/06/03 04:14:51;;;;;;;9.88;3.40;;;;;;;10.07;100.00;101749.47;5006640;28;20392;-73
2023/06/03 04:17:25;;;;;;;7.85;3.00;;;;;;;10.07;100.00;101748.66;5007492;28;20061;-75
2023/06/03 04:19:52;;;;;;;6.90;2.78;;;;;;;10.05;100.00;101746.25;5007597;28;20132;-76
2023/06/03 04:22:21;;;;;;;8.10;2.88;;;;;;;10.02;100.00;101758.16;5005649;28;20496;-75
2023/06/03 04:24:59;;;;;;;10.93;3.08;;;;;;;10.03;100.00;101760.53;5006890;28;20046;-75
2023/06/03 04:27:26;;;;;;;12.00;3.35;;;;;;;10.06;100.00;101756.19;5008847;28;20119;-74
2023/06/03 04:29:52;;;;;;;7.93;2.95;;;;;;;10.07;100.00;101752.22;5005570;28;20527;-75
2023/06/03 04:32:19;;;;;;;8.68;2.88;;;;;;;10.06;100.00;101758.94;5005585;28;20504;-74
2023/06/03 04:34:53;;;;;;;7.38;2.70;;;;;;;10.05;100.00;101762.94;5004681;28;20050;-74
2023/06/03 04:37:22;;;;;;;6.03;2.72;;;;;;;10.10;100.00;101753.44;5008497;28;20072;-73
2023/06/03 04:39:48;;;;;;;7.15;2.72;;;;;;;10.15;100.00;101756.63;5009868;28;20081;-74
2023/06/03 04:42:15;;;;;;;8.60;2.60;;;;;;;10.16;100.00;101758.22;5014985;28;20137;-74
2023/06/03 04:44:42;;;;;;;8.98;3.08;;;;;;;10.17;100.00;101757.03;5013248;28;20072;-74
2023/06/03 04:47:10;;;;;;;9.27;3.00;;;;;;;10.23;100.00;101766.59;5018030;28;20519;-75
2023/06/03 04:49:41;;;;;;;7.78;2.60;;;;;;;10.26;100.00;101760.25;5007314;28;20054;-74
2023/06/03 04:52:09;;;;;;;6.45;2.67;;;;;;;10.33;100.00;101765.06;5007039;28;20057;-74
2023/06/03 04:54:37;;;;;;;6.05;2.45;;;;;;;10.38;100.00;101761.88;5005862;28;20059;-74
2023/06/03 04:57:04;;;;;;;5.47;2.72;;;;;;;10.42;100.00;101755.16;5007108;28;20065;-74
2023/06/03 04:59:31;;;;;;;8.13;2.35;;;;;;;10.49;100.00;101755.19;5013068;28;20056;-76
2023/06/03 05:01:58;;;;;;;7.53;2.72;;;;;;;10.54;100.00;101757.59;5008041;28;20054;-75
2023/06/03 05:04:29;;;;;;;6.35;2.33;;;;;;;10.60;100.00;101756.00;5005676;28;20492;-74
2023/06/03 05:06:56;;;;;;;5.93;2.38;;;;;;;10.66;100.00;101762.78;5002090;28;20081;-75
2023/06/03 05:09:22;;;;;;;11.27;3.08;;;;;;;10.75;100.00;101754.88;5005338;28;20483;-74
2023/06/03 05:11:49;;;;;;;6.40;2.15;;;;;;;10.81;100.00;101760.84;5006061;28;20145;-75
2023/06/03 05:14:15;;;;;;;11.70;3.47;;;;;;;10.85;100.00;101756.88;5013946;28;20052;-74
2023/06/03 05:16:42;;;;;;;6.03;2.22;;;;;;;10.94;100.00;101754.50;5006361;28;20442;-75
2023/06/03 05:19:08;;;;;;;6.43;2.20;;;;;;;10.96;100.00;101760.47;5003178;28;20426;-75
2023/06/03 05:21:35;;;;;;;8.88;2.25;;;;;;;11.02;100.00;101744.97;4999242;28;20508;-71
2023/06/03 05:24:02;;;;;;;9.18;2.50;;;;;;;11.12;100.00;101751.75;5012655;28;20797;-76
2023/06/03 05:26:28;;;;;;;6.22;2.63;;;;;;;11.16;100.00;101746.97;5011387;28;20077;-75
2023/06/03 05:28:55;;;;;;;7.40;2.50;;;;;;;11.21;100.00;101750.16;5008516;28;20170;-76
2023/06/03 05:31:21;;;;;;;6.88;2.30;;;;;;;11.26;100.00;101746.22;5014936;28;20076;-75
2023/06/03 05:33:48;;;;;;;8.10;2.17;;;;;;;11.32;100.00;101748.22;5017296;28;20046;-75
2023/06/03 05:36:15;;;;;;;6.68;2.45;;;;;;;11.38;100.00;101749.38;5008524;28;20519;-76
2023/06/03 05:38:42;;;;;;;6.63;2.10;;;;;;;11.44;100.00;101744.19;5006137;28;20050;-75
2023/06/03 05:41:08;;;;;;;7.30;1.92;;;;;;;11.48;100.00;101756.94;5008521;28;20073;-75
2023/06/03 05:43:36;;;;;;;10.80;2.22;;;;;;;11.49;100.00;101757.75;5007581;28;20586;-74
2023/06/03 05:46:03;;;;;;;8.18;2.15;;;;;;;11.53;100.00;101759.34;5024892;28;20058;-74
2023/06/03 05:48:30;;;;;;;2.85;1.50;;;;;;;11.59;100.00;101756.94;5008932;28;20055;-74
2023/06/03 05:50:57;;;;;;;5.72;1.85;;;;;;;11.64;100.00;101748.16;5009760;28;20542;-74
2023/06/03 05:53:25;;;;;;;6.05;2.28;;;;;;;11.65;100.00;101744.97;5007424;28;20073;-75
2023/06/03 05:55:52;;;;;;;3.92;1.75;;;;;;;11.73;100.00;101745.78;5017272;28;20785;-74
2023/06/03 05:58:20;;;;;;;5.68;1.73;;;;;;;11.76;100.00;101750.56;5008972;28;20069;-74
2023/06/03 06:00:47;;;;;;;3.83;1.65;;;;;;;11.82;100.00;101748.94;5007896;28;20169;-75
2023/06/03 06:03:16;;;;;;;5.15;1.73;;;;;;;11.84;100.00;101755.72;5008303;28;20157;-76
2023/06/03 06:05:45;;;;;;;7.70;1.70;;;;;;;11.89;100.00;101752.50;5010137;28;20157;-74
2023/06/03 06:08:11;;;;;;;5.38;2.35;;;;;;;11.92;100.00;101748.91;5004344;28;20104;-73
2023/06/03 06:10:38;;;;;;;4.93;1.90;;;;;;;11.99;100.00;101748.88;5010897;28;20046;-74
2023/06/03 06:13:05;;;;;;;9.90;2.22;;;;;;;12.02;100.00;101745.31;5007671;28;20137;-75
2023/06/03 06:15:32;;;;;;;7.47;2.30;;;;;;;12.05;100.00;101752.84;5017329;28;20087;-76
2023/06/03 06:17:59;;;;;;;7.57;1.58;;;;;;;12.11;100.00;101758.81;5009729;28;20050;-77
2023/06/03 06:20:26;;;;;;;7.55;1.85;;;;;;;12.13;100.00;101753.63;5001814;28;20151;-73
2023/06/03 06:22:53;;;;;;;3.40;1.60;;;;;;;12.25;100.00;101767.13;5009230;28;20045;-73
2023/06/03 06:25:20;;;;;;;6.05;1.50;;;;;;;12.28;100.00;101758.75;5012833;28;20133;-74
2023/06/03 06:27:47;;;;;;;3.65;1.50;;;;;;;12.31;100.00;101759.94;5010644;28;20085;-73
2023/06/03 06:30:14;;;;;;;5.80;1.83;;;;;;;12.44;100.00;101759.13;5009551;28;20054;-74
2023/06/03 06:32:50;;;;;;;4.03;1.50;;;;;;;12.50;100.00;101756.72;5001017;28;20058;-73
2023/06/03 06:35:19;;;;;;;6.93;2.10;;;;;;;12.59;100.00;101764.63;5008751;28;20277;-70
2023/06/03 06:37:46;;;;;;;6.45;1.83;;;;;;;12.66;100.00;101768.16;5006337;28;20167;-73
2023/06/03 06:40:20;;;;;;;6.97;1.58;;;;;;;12.72;100.00;101763.75;5017139;28;20141;-71
2023/06/03 06:42:47;;;;;;;6.47;1.77;;;;;;;12.79;100.00;101760.16;5008367;28;20127;-70
2023/06/03 06:45:26;;;;;;;10.48;1.70;;;;;;;12.89;100.00;101767.66;5007804;28;20117;-69
2023/06/03 06:48:13;;;;;;;7.68;1.52;;;;;;;12.89;100.00;101757.28;5006412;28;20050;-72
2023/06/03 06:50:58;;;;;;;6.07;1.50;;;;;;;12.93;100.00;101766.41;5017370;28;20049;-70
2023/06/03 06:53:27;;;;;;;3.75;1.45;;;;;;;12.97;100.00;101764.41;5006614;28;20046;-70
2023/06/03 06:56:02;;;;;;;6.68;1.52;;;;;;;12.98;100.00;101762.41;5007225;28;20084;-69
2023/06/03 06:58:37;;;;;;;5.10;1.60;;;;;;;13.10;100.00;101773.09;5008231;28;20099;-71
2023/06/03 07:01:08;;;;;;;5.53;1.65;;;;;;;13.18;100.00;101757.88;5007591;28;20568;-71
2023/06/03 07:03:35;;;;;;;5.07;1.73;;;;;;;13.24;100.00;101759.03;5006144;28;20108;-71
2023/06/03 07:06:02;;;;;;;7.85;1.55;;;;;;;13.35;100.00;101762.53;5010299;28;20088;-70
2023/06/03 07:08:31;;;;;;;4.93;1.33;;;;;;;13.38;100.00;101762.50;5005215;28;20065;-74
2023/06/03 07:11:00;;;;;;;5.78;1.42;;;;;;;13.51;100.00;101763.63;5005807;28;20054;-71
2023/06/03 07:13:26;;;;;;;4.53;1.40;;;;;;;13.58;100.00;101763.56;5012013;28;20050;-70
2023/06/03 07:15:53;;;;;;;6.47;2.30;;;;;;;13.69;100.00;101769.03;5010095;28;20346;-70
2023/06/03 07:18:21;;;;;;;5.13;1.50;;;;;;;13.75;100.00;101764.59;5013296;28;20077;-71
2023/06/03 07:20:48;;;;;;;7.45;1.70;;;;;;;13.87;100.00;101767.66;5007434;28;20065;-69
2023/06/03 07:23:28;;;;;;;12.65;3.72;;;;;;;13.94;100.00;101764.78;5004309;28;20092;-69
2023/06/03 07:25:56;;;;;;;3.38;1.60;;;;;;;14.04;100.00;101765.91;5010705;28;20058;-70
2023/06/03 07:28:34;;;;;;;3.80;1.27;;;;;;;14.13;100.00;101775.38;5007710;28;20069;-69
2023/06/03 07:31:05;;;;;;;4.97;1.65;;;;;;;14.17;100.00;101769.72;5007677;28;20078;-69
2023/06/03 07:33:50;;;;;;;4.05;1.40;;;;;;;14.24;100.00;101772.44;5000599;28;20108;-71
2023/06/03 07:36:19;;;;;;;5.60;1.60;;;;;;;14.31;100.00;101775.94;5005819;28;20427;-70
2023/06/03 07:38:59;;;;;;;4.35;1.63;;;;;;;14.42;100.00;101767.47;5007987;28;20487;-72
2023/06/03 07:41:36;;;;;;;3.10;1.30;;;;;;;14.51;100.00;101774.13;5000397;28;20104;-73
2023/06/03 07:44:11;;;;;;;16.85;1.95;;;;;;;14.65;100.00;101775.97;5007617;28;20053;-73
2023/06/03 07:46:57;;;;;;;7.13;1.27;;;;;;;14.69;100.00;101768.31;5015700;28;20101;-72
2023/06/03 07:49:23;;;;;;;;;;;;;;;14.77;99.50;101766.97;5007595;28;20088;-69
2023/06/03 07:51:51;;;;;;;6.25;1.70;;;;;;;14.79;100.00;101768.13;5006015;28;19964;-70
2023/06/03 07:54:18;;;;;;;5.72;1.38;;;;;;;14.76;97.54;101768.22;5006292;28;20085;-71
2023/06/03 07:56:46;;;;;;;4.72;1.48;;;;;;;14.86;100.00;101767.25;5009102;28;20140;-69
2023/06/03 07:59:14;;;;;;;6.50;1.52;;;;;;;14.93;100.00;101769.97;5005513;28;20092;-70
2023/06/03 08:01:42;;;;;;;3.67;1.27;;;;;;;14.95;100.00;101767.50;5002055;28;20056;-70
2023/06/03 08:04:32;;;;;;;9.70;1.63;;;;;;;15.02;99.89;101775.03;5006524;28;20054;-68
2023/06/03 08:07:02;;;;;;;5.00;1.58;;;;;;;15.12;100.00;101769.25;5006500;28;20053;-69
2023/06/03 08:09:33;;;;;;;4.68;1.10;;;;;;;15.21;98.31;101766.72;5005029;28;20042;-69
2023/06/03 08:12:03;;;;;;;2.88;0.77;;;;;;;15.28;97.50;101769.41;5005614;28;20112;-69
2023/06/03 08:14:32;;;;;;;4.38;1.13;;;;;;;15.32;96.85;101769.38;4992600;28;20488;-68
2023/06/03 08:17:15;;;;;;;3.47;1.13;;;;;;;15.34;95.23;101769.72;5010432;28;20058;-71
2023/06/03 08:19:45;;;;;;;9.82;1.55;;;;;;;15.43;96.12;101767.22;5005989;28;20108;-70
2023/06/03 08:22:24;;;;;;;6.80;1.33;;;;;;;15.50;95.36;101762.28;5003981;28;20054;-69
2023/06/03 08:24:51;;;;;;;6.57;1.60;;;;;;;15.59;96.38;101759.69;5006172;28;20049;-70
2023/06/03 08:27:17;;;;;;;7.50;1.40;;;;;;;15.64;93.18;101752.81;5006642;28;20045;-70
2023/06/03 08:29:45;;;;;;;3.17;1.40;;;;;;;15.61;92.14;101745.25;5005348;28;20089;-71
2023/06/03 08:32:11;;;;;;;5.38;1.65;;;;;;;15.76;95.90;101757.81;4997406;28;20076;-70
2023/06/03 08:34:38;;;;;;;3.13;1.20;;;;;;;15.83;93.99;101752.09;5002736;28;20072;-73
2023/06/03 08:37:06;;;;;;;6.50;1.63;;;;;;;15.92;94.70;101750.28;5007527;28;20488;-73
2023/06/03 08:39:32;;;;;;;5.78;1.77;;;;;;;16.03;94.97;101758.50;5009600;28;20057;-71
2023/06/03 08:42:06;;;;;;;4.72;1.27;;;;;;;16.20;95.17;101755.34;5021145;28;20058;-74
2023/06/03 08:44:44;;;;;;;5.95;1.77;;;;;;;16.31;94.48;101755.94;5001937;28;20049;-70
2023/06/03 08:47:13;;;;;;;7.07;1.55;;;;;;;16.41;95.59;101752.13;4999664;28;20466;-72
2023/06/03 08:50:05;;;;;;;6.20;1.30;;;;;;;16.55;93.90;101749.03;5011554;28;20049;-72
2023/06/03 08:52:38;;;;;;;6.10;1.73;;;;;;;16.68;93.85;101752.72;4999036;28;20128;-72
2023/06/03 08:55:11;;;;;;;7.80;1.58;;;;;;;16.71;91.39;101751.88;5006305;28;20053;-70
2023/06/03 08:57:50;;;;;;;6.88;1.25;;;;;;;16.79;91.41;101744.88;5003758;28;20115;-72
2023/06/03 09:00:23;;;;;;;4.78;1.40;;;;;;;16.86;88.06;101747.53;5003601;28;20100;-72
2023/06/03 09:02:51;;;;;;;6.18;1.65;;;;;;;17.01;90.99;101748.75;5010445;28;20050;-71
2023/06/03 09:05:22;;;;;;;3.15;1.15;;;;;;;17.06;86.78;101739.81;5006778;28;20084;-71
2023/06/03 09:07:50;;;;;;;7.28;1.67;;;;;;;17.20;86.25;101741.53;5005732;28;20731;-71
2023/06/03 09:10:20;;;;;;;4.47;1.40;;;;;;;17.27;85.30;101739.34;5004552;28;20923;-70
2023/06/03 09:12:48;;;;;;;5.63;1.55;;;;;;;17.33;83.99;101737.59;5002688;28;20046;-71
2023/06/03 09:15:15;;;;;;;5.90;1.70;;;;;;;17.38;85.35;101729.84;5018345;28;20069;-71
2023/06/03 09:17:42;;;;;;;4.25;1.58;;;;;;;17.51;87.93;101747.59;5010131;28;20980;-70
2023/06/03 09:20:10;;;;;;;4.07;1.38;;;;;;;17.53;81.38;101745.09;5009276;28;20068;-70
2023/06/03 09:22:38;;;;;;;3.72;1.20;;;;;;;17.52;81.99;101741.53;5006153;28;20080;-72
2023/06/03 09:25:05;;;;;;;6.82;1.52;;;;;;;17.56;80.32;101745.03;5005178;28;20092;-69
2023/06/03 09:27:32;;;;;;;5.20;2.10;;;;;;;17.60;81.01;101747.72;5010756;28;20045;-72
2023/06/03 09:30:04;;;;;;;3.88;1.45;;;;;;;17.65;81.61;101744.41;5004662;28;20062;-71
2023/06/03 09:32:31;;;;;;;1.90;1.05;;;;;;;17.71;82.73;101732.16;5005438;28;20052;-73
2023/06/03 09:34:58;;;;;;;6.43;1.75;;;;;;;17.81;84.00;101738.72;5004216;28;20046;-70
2023/06/03 09:37:25;;;;;;;5.65;1.40;;;;;;;17.88;82.51;101735.72;4992240;28;20069;-71
2023/06/03 09:39:57;;;;;;;3.35;1.38;;;;;;;17.91;79.55;101740.47;5004443;28;20057;-73
2023/06/03 09:42:40;;;;;;;3.40;1.45;;;;;;;17.94;77.54;101742.44;5013618;28;20076;-71
2023/06/03 09:45:07;;;;;;;10.55;1.90;;;;;;;18.03;78.44;101745.41;5006554;28;20488;-72
2023/06/03 09:47:35;;;;;;;6.55;1.85;;;;;;;18.03;77.28;101743.38;5003525;28;20129;-70
2023/06/03 09:50:04;;;;;;;3.67;1.55;;;;;;;18.07;74.56;101735.63;5000747;28;20179;-72
2023/06/03 09:52:36;;;;;;;8.15;1.52;;;;;;;18.10;74.34;101742.38;5007698;28;20069;-71
2023/06/03 09:55:07;;;;;;;3.67;1.45;;;;;;;18.23;72.69;101740.41;5002036;28;20137;-71
2023/06/03 09:57:34;;;;;;;2.72;1.45;;;;;;;18.32;74.91;101746.16;5011538;28;20468;-71
2023/06/03 10:00:11;;;;;;;5.13;1.55;;;;;;;18.50;75.55;101741.56;5005323;28;20127;-70
2023/06/03 10:02:43;;;;;;;8.85;1.40;;;;;;;18.59;74.03;101743.72;5005245;28;20127;-70
2023/06/03 10:05:29;;;;;;;6.43;1.52;;;;;;;18.70;76.14;101733.72;5012898;28;20038;-72
2023/06/03 10:07:57;;;;;;;4.80;1.30;;;;;;;18.87;74.34;101737.28;5002112;28;20602;-73
2023/06/03 10:10:28;;;;;;;4.35;1.58;;;;;;;18.98;71.83;101734.91;5004588;28;20049;-72
2023/06/03 10:12:55;;;;;;;4.03;1.48;;;;;;;19.11;73.80;101735.69;5015276;28;20046;-74
2023/06/03 10:15:34;;;;;;;9.88;2.17;;;;;;;19.15;68.32;101742.78;5008070;28;20050;-69
2023/06/03 10:18:02;;;;;;;6.80;1.60;;;;;;;19.07;67.54;101737.84;5009836;28;20139;-68
2023/06/03 10:20:40;;;;;;;3.60;1.55;;;;;;;19.12;69.26;101731.63;5007153;28;20046;-69
2023/06/03 10:23:08;;;;;;;8.38;1.80;;;;;;;19.18;65.10;101736.22;5006773;28;20108;-69
2023/06/03 10:25:46;;;;;;;7.20;1.70;;;;;;;19.23;67.39;101732.06;5007103;28;20457;-69
2023/06/03 10:28:13;;;;;;;4.15;1.63;;;;;;;19.39;65.08;101732.72;4999629;28;20061;-71
2023/06/03 10:30:41;;;;;;;4.97;1.50;;;;;;;19.59;67.71;101736.09;5007023;28;20112;-70
2023/06/03 10:33:09;;;;;;;5.53;1.50;;;;;;;19.69;65.31;101720.03;5006829;28;20113;-72
2023/06/03 10:35:37;;;;;;;3.88;1.60;;;;;;;19.78;64.38;101735.00;5008150;28;20104;-72
2023/06/03 10:38:05;;;;;;;5.28;1.52;;;;;;;19.88;62.60;101726.63;5005723;28;20100;-71
2023/06/03 10:40:33;;;;;;;7.20;2.35;;;;;;;20.04;62.15;101735.69;5009278;28;20119;-71
2023/06/03 10:43:00;;;;;;;4.30;1.73;;;;;;;20.12;62.01;101730.56;5005603;28;20619;-71
2023/06/03 10:45:27;;;;;;;8.80;1.92;;;;;;;20.07;58.27;101728.31;4998780;28;20052;-70
2023/06/03 10:48:00;;;;;;;7.50;2.20;;;;;;;20.10;57.18;101733.06;5013504;28;20099;-71
2023/06/03 10:50:49;;;;;;;4.25;1.70;;;;;;;20.08;54.88;101735.56;5008527;28;20053;-71
2023/06/03 10:53:37;;;;;;;4.50;1.52;;;;;;;20.10;56.16;101736.69;5013436;28;20077;-69
2023/06/03 10:56:28;;;;;;;2.53;1.25;;;;;;;20.28;55.39;101731.19;5025989;28;20137;-71
2023/06/03 10:59:03;;;;;;;4.47;1.67;;;;;;;20.39;54.13;101725.16;5020746;28;20073;-70
2023/06/03 11:01:55;;;;;;;4.45;2.25;;;;;;;20.53;54.00;101725.41;5010207;28;20137;-72
2023/06/03 11:04:22;;;;;;;5.25;1.75;;;;;;;20.57;55.18;101723.22;5005232;28;20157;-71
2023/06/03 11:06:48;;;;;;;6.80;2.10;;;;;;;20.55;52.22;101722.88;5007443;28;20528;-71
2023/06/03 11:09:29;;;;;;;7.10;1.85;;;;;;;20.76;52.88;101722.03;5013017;28;20452;-71
2023/06/03 11:12:05;;;;;;;10.95;1.80;;;;;;;20.88;50.14;101717.53;5007517;28;20151;-71
2023/06/03 11:14:34;;;;;;;3.15;1.38;;;;;;;20.99;50.14;101717.94;5002201;28;20053;-72
2023/06/03 11:17:01;;;;;;;3.85;1.50;;;;;;;21.13;49.18;101715.31;5006414;28;21394;-71
2023/06/03 11:20:00;;;;;;;9.30;1.98;;;;;;;21.20;51.07;101720.66;5001228;28;20053;-72
2023/06/03 11:22:27;;;;;;;5.15;1.55;;;;;;;21.39;49.04;101710.19;4997438;28;20123;-72
2023/06/03 11:24:54;;;;;;;4.00;1.52;;;;;;;21.42;48.32;101706.41;5010061;28;20491;-71
2023/06/03 11:27:23;;;;;;;6.95;1.55;;;;;;;21.74;49.44;101720.00;5020193;28;20046;-69
2023/06/03 11:29:50;;;;;;;4.57;1.38;;;;;;;21.92;46.57;101723.63;5004088;28;20082;-71